sensor_id;sensor_type;location;lat;lon;timestamp;P1;durP1;ratioP1;P2;durP2;ratioP2
43861;SDS011;29510;52.140;5.034;2023-10-09T00:00:33;38.33;;;23.23;;
43861;SDS011;29510;52.140;5.034;2023-10-09T00:10:37;37.17;;;22.08;;
43861;SDS011;29510;52.140;5.034;2023-10-09T00:20:48;34.67;;;20.70;;
43861;SDS011;29510;52.140;5.034;2023-10-09T00:30:54;33.08;;;19.67;;
43861;SDS011;29510;52.140;5.034;2023-10-09T00:40:54;29.27;;;18.88;;
43861;SDS011;29510;52.140;5.034;2023-10-09T00:51:10;29.52;;;17.90;;
43861;SDS011;29510;52.140;5.034;2023-10-09T01:01:18;21.52;;;15.48;;
43861;SDS011;29510;52.140;5.034;2023-10-09T01:11:19;27.67;;;17.88;;
43861;SDS011;29510;52.140;5.034;2023-10-09T01:21:29;27.10;;;17.00;;
43861;SDS011;29510;52.140;5.034;2023-10-09T01:31:31;23.05;;;16.10;;
43861;SDS011;29510;52.140;5.034;2023-10-09T01:41:34;26.10;;;16.63;;
43861;SDS011;29510;52.140;5.034;2023-10-09T01:51:34;25.73;;;15.95;;
43861;SDS011;29510;52.140;5.034;2023-10-09T02:01:36;21.48;;;15.45;;
43861;SDS011;29510;52.140;5.034;2023-10-09T02:11:41;23.35;;;14.43;;
43861;SDS011;29510;52.140;5.034;2023-10-09T02:21:45;17.20;;;12.07;;
43861;SDS011;29510;52.140;5.034;2023-10-09T02:31:45;25.27;;;17.20;;
43861;SDS011;29510;52.140;5.034;2023-10-09T02:41:54;19.80;;;15.45;;
43861;SDS011;29510;52.140;5.034;2023-10-09T02:52:19;22.37;;;14.93;;
43861;SDS011;29510;52.140;5.034;2023-10-09T03:02:24;22.20;;;16.38;;
43861;SDS011;29510;52.140;5.034;2023-10-09T03:12:26;20.52;;;13.95;;
43861;SDS011;29510;52.140;5.034;2023-10-09T03:22:28;25.23;;;15.13;;
43861;SDS011;29510;52.140;5.034;2023-10-09T03:32:30;20.02;;;13.90;;
43861;SDS011;29510;52.140;5.034;2023-10-09T03:42:31;21.95;;;14.38;;
43861;SDS011;29510;52.140;5.034;2023-10-09T03:52:33;17.13;;;11.00;;
43861;SDS011;29510;52.140;5.034;2023-10-09T04:02:35;20.00;;;11.88;;
43861;SDS011;29510;52.140;5.034;2023-10-09T04:12:35;15.82;;;9.90;;
43861;SDS011;29510;52.140;5.034;2023-10-09T04:22:39;17.23;;;10.32;;
43861;SDS011;29510;52.140;5.034;2023-10-09T04:33:01;14.43;;;8.88;;
43861;SDS011;29510;52.140;5.034;2023-10-09T04:43:11;14.85;;;9.15;;
43861;SDS011;29510;52.140;5.034;2023-10-09T04:53:20;17.70;;;8.88;;
43861;SDS011;29510;52.140;5.034;2023-10-09T05:03:23;16.38;;;8.55;;
43861;SDS011;29510;52.140;5.034;2023-10-09T05:23:41;15.43;;;9.48;;
43861;SDS011;29510;52.140;5.034;2023-10-09T05:34:10;14.05;;;8.25;;
43861;SDS011;29510;52.140;5.034;2023-10-09T05:44:19;14.65;;;9.00;;
43861;SDS011;29510;52.140;5.034;2023-10-09T05:54:49;16.00;;;9.55;;
43861;SDS011;29510;52.140;5.034;2023-10-09T06:05:08;12.63;;;8.68;;
43861;SDS011;29510;52.140;5.034;2023-10-09T06:15:34;16.30;;;8.95;;
43861;SDS011;29510;52.140;5.034;2023-10-09T06:25:45;13.45;;;8.63;;
43861;SDS011;29510;52.140;5.034;2023-10-09T06:35:51;13.52;;;8.50;;
43861;SDS011;29510;52.140;5.034;2023-10-09T06:45:55;12.00;;;7.40;;
43861;SDS011;29510;52.140;5.034;2023-10-09T06:56:15;19.98;;;10.65;;
43861;SDS011;29510;52.140;5.034;2023-10-09T07:06:31;14.10;;;8.70;;
43861;SDS011;29510;52.140;5.034;2023-10-09T07:16:35;18.00;;;12.20;;
43861;SDS011;29510;52.140;5.034;2023-10-09T07:26:38;11.68;;;7.55;;
43861;SDS011;29510;52.140;5.034;2023-10-09T07:36:47;11.25;;;6.70;;
43861;SDS011;29510;52.140;5.034;2023-10-09T07:46:49;13.57;;;6.95;;
43861;SDS011;29510;52.140;5.034;2023-10-09T07:56:52;15.40;;;9.05;;
43861;SDS011;29510;52.140;5.034;2023-10-09T08:06:53;12.40;;;7.57;;
43861;SDS011;29510;52.140;5.034;2023-10-09T08:16:58;12.02;;;7.68;;
43861;SDS011;29510;52.140;5.034;2023-10-09T08:27:37;10.00;;;6.55;;
43861;SDS011;29510;52.140;5.034;2023-10-09T08:37:46;10.23;;;7.30;;
43861;SDS011;29510;52.140;5.034;2023-10-09T08:47:48;17.08;;;8.40;;
43861;SDS011;29510;52.140;5.034;2023-10-09T08:57:52;14.60;;;7.30;;
43861;SDS011;29510;52.140;5.034;2023-10-09T09:07:53;12.93;;;7.57;;
43861;SDS011;29510;52.140;5.034;2023-10-09T09:18:05;13.93;;;6.70;;
43861;SDS011;29510;52.140;5.034;2023-10-09T09:28:16;12.07;;;6.70;;
43861;SDS011;29510;52.140;5.034;2023-10-09T09:38:21;12.52;;;5.60;;
43861;SDS011;29510;52.140;5.034;2023-10-09T09:48:23;13.00;;;4.78;;
43861;SDS011;29510;52.140;5.034;2023-10-09T09:58:25;10.90;;;5.80;;
43861;SDS011;29510;52.140;5.034;2023-10-09T10:08:42;11.73;;;5.70;;
43861;SDS011;29510;52.140;5.034;2023-10-09T10:18:52;16.63;;;5.88;;
43861;SDS011;29510;52.140;5.034;2023-10-09T10:39:34;12.18;;;5.68;;
43861;SDS011;29510;52.140;5.034;2023-10-09T10:49:53;13.90;;;5.43;;
43861;SDS011;29510;52.140;5.034;2023-10-09T11:00:12;10.52;;;5.70;;
43861;SDS011;29510;52.140;5.034;2023-10-09T11:10:14;11.80;;;5.28;;
43861;SDS011;29510;52.140;5.034;2023-10-09T11:20:28;9.93;;;5.40;;
43861;SDS011;29510;52.140;5.034;2023-10-09T11:30:32;12.40;;;5.38;;
43861;SDS011;29510;52.140;5.034;2023-10-09T11:40:34;13.65;;;5.32;;
43861;SDS011;29510;52.140;5.034;2023-10-09T11:50:53;12.13;;;7.53;;
43861;SDS011;29510;52.140;5.034;2023-10-09T12:01:13;11.75;;;7.05;;
43861;SDS011;29510;52.140;5.034;2023-10-09T12:11:17;11.60;;;5.57;;
43861;SDS011;29510;52.140;5.034;2023-10-09T12:21:28;14.05;;;5.70;;
43861;SDS011;29510;52.140;5.034;2023-10-09T12:31:29;13.77;;;5.47;;
43861;SDS011;29510;52.140;5.034;2023-10-09T12:41:35;12.43;;;5.45;;
43861;SDS011;29510;52.140;5.034;2023-10-09T12:51:41;10.45;;;5.15;;
43861;SDS011;29510;52.140;5.034;2023-10-09T13:01:41;10.70;;;4.95;;
43861;SDS011;29510;52.140;5.034;2023-10-09T13:11:42;10.30;;;5.07;;
43861;SDS011;29510;52.140;5.034;2023-10-09T13:21:43;13.18;;;4.90;;
43861;SDS011;29510;52.140;5.034;2023-10-09T13:31:44;12.98;;;7.47;;
43861;SDS011;29510;52.140;5.034;2023-10-09T13:41:49;9.98;;;4.75;;
43861;SDS011;29510;52.140;5.034;2023-10-09T13:51:58;9.32;;;5.07;;
43861;SDS011;29510;52.140;5.034;2023-10-09T14:02:01;10.68;;;5.70;;
43861;SDS011;29510;52.140;5.034;2023-10-09T14:12:08;12.40;;;5.57;;
43861;SDS011;29510;52.140;5.034;2023-10-09T14:22:10;9.35;;;5.13;;
43861;SDS011;29510;52.140;5.034;2023-10-09T14:32:11;12.85;;;6.15;;
43861;SDS011;29510;52.140;5.034;2023-10-09T14:42:17;18.27;;;11.05;;
43861;SDS011;29510;52.140;5.034;2023-10-09T14:52:20;15.50;;;8.77;;
43861;SDS011;29510;52.140;5.034;2023-10-09T15:02:21;14.38;;;6.57;;
43861;SDS011;29510;52.140;5.034;2023-10-09T15:12:23;11.73;;;6.65;;
43861;SDS011;29510;52.140;5.034;2023-10-09T15:22:24;12.13;;;6.53;;
43861;SDS011;29510;52.140;5.034;2023-10-09T15:32:28;10.45;;;6.25;;
43861;SDS011;29510;52.140;5.034;2023-10-09T15:42:28;11.80;;;6.53;;
43861;SDS011;29510;52.140;5.034;2023-10-09T15:52:29;14.45;;;6.38;;
43861;SDS011;29510;52.140;5.034;2023-10-09T16:02:30;15.50;;;7.23;;
43861;SDS011;29510;52.140;5.034;2023-10-09T16:12:30;13.05;;;6.63;;
43861;SDS011;29510;52.140;5.034;2023-10-09T16:22:32;17.42;;;7.38;;
43861;SDS011;29510;52.140;5.034;2023-10-09T16:32:32;14.32;;;7.07;;
43861;SDS011;29510;52.140;5.034;2023-10-09T16:42:33;14.88;;;7.90;;
43861;SDS011;29510;52.140;5.034;2023-10-09T16:52:36;13.57;;;7.28;;
43861;SDS011;29510;52.140;5.034;2023-10-09T17:02:39;19.48;;;9.32;;
43861;SDS011;29510;52.140;5.034;2023-10-09T17:12:41;25.30;;;9.25;;
43861;SDS011;29510;52.140;5.034;2023-10-09T17:22:46;15.02;;;8.35;;
43861;SDS011;29510;52.140;5.034;2023-10-09T17:32:46;15.82;;;8.43;;
43861;SDS011;29510;52.140;5.034;2023-10-09T17:42:47;14.65;;;9.20;;
43861;SDS011;29510;52.140;5.034;2023-10-09T17:52:50;15.75;;;8.10;;
43861;SDS011;29510;52.140;5.034;2023-10-09T18:02:54;16.05;;;8.65;;
43861;SDS011;29510;52.140;5.034;2023-10-09T18:12:54;15.07;;;8.18;;
43861;SDS011;29510;52.140;5.034;2023-10-09T18:22:55;12.73;;;6.43;;
43861;SDS011;29510;52.140;5.034;2023-10-09T18:32:56;16.98;;;9.40;;
43861;SDS011;29510;52.140;5.034;2023-10-09T18:42:57;14.50;;;7.40;;
43861;SDS011;29510;52.140;5.034;2023-10-09T18:52:58;10.82;;;6.43;;
43861;SDS011;29510;52.140;5.034;2023-10-09T19:03:02;10.00;;;6.15;;
43861;SDS011;29510;52.140;5.034;2023-10-09T19:13:03;12.73;;;7.18;;
43861;SDS011;29510;52.140;5.034;2023-10-09T19:23:07;9.02;;;5.90;;
43861;SDS011;29510;52.140;5.034;2023-10-09T19:33:11;14.68;;;7.28;;
43861;SDS011;29510;52.140;5.034;2023-10-09T19:43:12;16.00;;;8.82;;
43861;SDS011;29510;52.140;5.034;2023-10-09T19:53:15;12.98;;;7.80;;
43861;SDS011;29510;52.140;5.034;2023-10-09T20:03:15;10.90;;;7.00;;
43861;SDS011;29510;52.140;5.034;2023-10-09T20:13:19;13.90;;;7.88;;
43861;SDS011;29510;52.140;5.034;2023-10-09T20:23:23;14.18;;;9.52;;
43861;SDS011;29510;52.140;5.034;2023-10-09T20:33:23;17.95;;;10.48;;
43861;SDS011;29510;52.140;5.034;2023-10-09T20:43:24;16.42;;;9.57;;
43861;SDS011;29510;52.140;5.034;2023-10-09T20:53:27;12.98;;;8.73;;
43861;SDS011;29510;52.140;5.034;2023-10-09T21:03:28;14.87;;;10.50;;
43861;SDS011;29510;52.140;5.034;2023-10-09T21:13:29;15.68;;;9.73;;
43861;SDS011;29510;52.140;5.034;2023-10-09T21:23:31;17.25;;;10.40;;
43861;SDS011;29510;52.140;5.034;2023-10-09T21:33:32;16.33;;;9.47;;
43861;SDS011;29510;52.140;5.034;2023-10-09T21:43:32;12.87;;;9.40;;
43861;SDS011;29510;52.140;5.034;2023-10-09T21:53:33;15.05;;;8.75;;
43861;SDS011;29510;52.140;5.034;2023-10-09T22:03:34;16.45;;;10.38;;
43861;SDS011;29510;52.140;5.034;2023-10-09T22:13:35;13.18;;;9.73;;
43861;SDS011;29510;52.140;5.034;2023-10-09T22:23:39;18.13;;;10.75;;
43861;SDS011;29510;52.140;5.034;2023-10-09T22:33:45;14.82;;;9.70;;
43861;SDS011;29510;52.140;5.034;2023-10-09T22:43:49;15.45;;;10.93;;
43861;SDS011;29510;52.140;5.034;2023-10-09T22:53:51;16.52;;;9.82;;
43861;SDS011;29510;52.140;5.034;2023-10-09T23:03:53;13.82;;;9.43;;
43861;SDS011;29510;52.140;5.034;2023-10-09T23:14:12;14.05;;;9.68;;
43861;SDS011;29510;52.140;5.034;2023-10-09T23:24:15;13.40;;;8.50;;
43861;SDS011;29510;52.140;5.034;2023-10-09T23:34:27;12.38;;;8.50;;
43861;SDS011;29510;52.140;5.034;2023-10-09T23:44:33;12.00;;;7.75;;
43861;SDS011;29510;52.140;5.034;2023-10-09T23:54:34;15.65;;;9.40;;
